createdAt,value
2018-01-27T00:00:41.182Z,1019.41
2018-01-27T00:01:41.171Z,1019.42
2018-01-27T00:02:41.160Z,1019.39
2018-01-27T00:03:41.153Z,1019.43
2018-01-27T00:04:41.153Z,1019.45
2018-01-27T00:05:41.136Z,1019.44
2018-01-27T00:06:41.127Z,1019.44
2018-01-27T00:07:41.111Z,1019.50
2018-01-27T00:08:41.108Z,1019.54
2018-01-27T00:09:41.090Z,1019.52
2018-01-27T00:10:41.085Z,1019.51
2018-01-27T00:11:41.077Z,1019.57
2018-01-27T00:12:41.064Z,1019.57
2018-01-27T00:13:41.053Z,1019.57
2018-01-27T00:14:41.043Z,1019.57
2018-01-27T00:15:41.034Z,1019.58
2018-01-27T00:16:41.040Z,1019.57
2018-01-27T00:17:41.021Z,1019.58
2018-01-27T00:18:41.005Z,1019.61
2018-01-27T00:19:41.008Z,1019.61
2018-01-27T00:20:40.980Z,1019.58
2018-01-27T00:21:40.977Z,1019.57
2018-01-27T00:22:40.962Z,1019.53
2018-01-27T00:23:40.950Z,1019.53
2018-01-27T00:24:40.945Z,1019.51
2018-01-27T00:25:40.931Z,1019.54
2018-01-27T00:26:40.924Z,1019.50
2018-01-27T00:27:40.909Z,1019.51
2018-01-27T00:28:40.905Z,1019.51
2018-01-27T00:29:40.890Z,1019.49
2018-01-27T00:30:40.885Z,1019.49
2018-01-27T00:31:40.870Z,1019.48
2018-01-27T00:32:40.864Z,1019.50
2018-01-27T00:33:40.854Z,1019.50
2018-01-27T00:34:40.840Z,1019.55
2018-01-27T00:35:40.835Z,1019.49
2018-01-27T00:36:40.823Z,1019.55
2018-01-27T00:37:40.813Z,1019.55
2018-01-27T00:38:40.809Z,1019.53
2018-01-27T00:39:40.799Z,1019.57
2018-01-27T00:40:40.813Z,1019.56
2018-01-27T00:41:40.779Z,1019.54
2018-01-27T00:42:42.111Z,1019.57
2018-01-27T00:43:40.781Z,1019.57
2018-01-27T00:44:40.749Z,1019.53
2018-01-27T00:45:40.734Z,1019.55
2018-01-27T00:46:40.722Z,1019.56
2018-01-27T00:47:40.716Z,1019.57
2018-01-27T00:48:40.706Z,1019.57
2018-01-27T00:49:40.696Z,1019.59
2018-01-27T00:50:40.689Z,1019.59
2018-01-27T00:51:40.674Z,1019.59
2018-01-27T00:52:40.662Z,1019.61
2018-01-27T00:53:40.652Z,1019.59
2018-01-27T00:54:40.642Z,1019.63
2018-01-27T00:55:40.645Z,1019.63
2018-01-27T00:56:40.624Z,1019.59
2018-01-27T00:57:40.617Z,1019.63
2018-01-27T00:58:40.613Z,1019.60
2018-01-27T00:59:40.593Z,1019.59
2018-01-27T01:00:40.587Z,1019.56
2018-01-27T01:01:40.573Z,1019.58
2018-01-27T01:02:40.561Z,1019.58
2018-01-27T01:03:40.565Z,1019.55
2018-01-27T01:04:40.544Z,1019.56
2018-01-27T01:05:40.542Z,1019.56
2018-01-27T01:06:40.537Z,1019.57
2018-01-27T01:07:40.514Z,1019.59
2018-01-27T01:08:40.505Z,1019.60
2018-01-27T01:09:40.494Z,1019.63
2018-01-27T01:10:40.485Z,1019.66
2018-01-27T01:11:40.474Z,1019.65
2018-01-27T01:12:40.460Z,1019.69
2018-01-27T01:13:40.490Z,1019.67
2018-01-27T01:14:40.443Z,1019.70
2018-01-27T01:15:40.477Z,1019.69
2018-01-27T01:16:40.423Z,1019.71
2018-01-27T01:17:40.414Z,1019.66
2018-01-27T01:18:40.427Z,1019.68
2018-01-27T01:19:40.408Z,1019.72
2018-01-27T01:20:40.387Z,1019.74
2018-01-27T01:21:40.372Z,1019.75
2018-01-27T01:22:40.363Z,1019.76
2018-01-27T01:23:40.353Z,1019.77
2018-01-27T01:24:40.342Z,1019.80
2018-01-27T01:25:40.333Z,1019.80
2018-01-27T01:26:40.320Z,1019.82
2018-01-27T01:27:40.312Z,1019.83
2018-01-27T01:28:40.302Z,1019.82
2018-01-27T01:29:40.290Z,1019.83
2018-01-27T01:30:40.281Z,1019.86
2018-01-27T01:31:40.271Z,1019.83
2018-01-27T01:32:40.255Z,1019.85
2018-01-27T01:33:40.251Z,1019.89
2018-01-27T01:34:40.237Z,1019.88
2018-01-27T01:35:40.232Z,1019.94
2018-01-27T01:36:40.226Z,1019.94
2018-01-27T01:37:40.212Z,1019.95
2018-01-27T01:38:40.200Z,1019.94
2018-01-27T01:39:40.189Z,1019.95
2018-01-27T01:40:40.176Z,1019.98
2018-01-27T01:41:40.189Z,1019.98
2018-01-27T01:42:40.163Z,1019.97
2018-01-27T01:43:40.149Z,1019.98
2018-01-27T01:44:40.140Z,1019.98
2018-01-27T01:45:40.133Z,1019.98
2018-01-27T01:46:40.117Z,1019.98
2018-01-27T01:47:40.110Z,1020.03
2018-01-27T01:48:40.103Z,1020.04
2018-01-27T01:49:40.090Z,1020.02
2018-01-27T01:50:40.082Z,1020.01
2018-01-27T01:51:40.070Z,1019.97
2018-01-27T01:52:40.059Z,1019.97
2018-01-27T01:53:40.051Z,1019.97
2018-01-27T01:54:40.042Z,1019.97
2018-01-27T01:55:40.030Z,1019.92
2018-01-27T01:56:40.020Z,1019.93
2018-01-27T01:57:40.012Z,1019.92
2018-01-27T01:58:39.994Z,1019.96
2018-01-27T01:59:39.992Z,1019.94
2018-01-27T02:00:39.983Z,1019.94
2018-01-27T02:01:39.968Z,1019.96
2018-01-27T02:02:39.961Z,1019.97
2018-01-27T02:03:39.956Z,1019.94
2018-01-27T02:04:39.939Z,1019.97
2018-01-27T02:05:39.927Z,1019.94
2018-01-27T02:06:39.918Z,1019.96
2018-01-27T02:07:39.909Z,1019.98
2018-01-27T02:08:39.896Z,1019.98
2018-01-27T02:09:39.889Z,1019.95
2018-01-27T02:10:39.876Z,1019.98
2018-01-27T02:11:39.866Z,1019.99
2018-01-27T02:12:39.874Z,1019.98
2018-01-27T02:13:39.846Z,1020.01
2018-01-27T02:14:39.835Z,1020.01
2018-01-27T02:15:39.824Z,1020.04
2018-01-27T02:16:39.816Z,1020.02
2018-01-27T02:17:39.803Z,1020.02
2018-01-27T02:18:39.793Z,1020.01
2018-01-27T02:19:39.802Z,1020.06
2018-01-27T02:20:39.776Z,1020.06
2018-01-27T02:21:39.801Z,1020.05
2018-01-27T02:22:39.756Z,1020.06
2018-01-27T02:23:39.743Z,1020.10
2018-01-27T02:24:39.736Z,1020.04
2018-01-27T02:25:39.726Z,1020.10
2018-01-27T02:26:39.717Z,1020.12
2018-01-27T02:27:39.706Z,1020.09
2018-01-27T02:28:39.695Z,1020.07
2018-01-27T02:29:39.684Z,1020.04
2018-01-27T02:30:39.674Z,1020.08
2018-01-27T02:31:39.665Z,1020.03
2018-01-27T02:32:39.657Z,1020.08
2018-01-27T02:33:39.645Z,1020.08
2018-01-27T02:34:39.635Z,1020.07
2018-01-27T02:35:39.622Z,1020.07
2018-01-27T02:36:39.613Z,1020.09
2018-01-27T02:37:39.610Z,1020.10
2018-01-27T02:38:39.600Z,1020.12
2018-01-27T02:39:39.584Z,1020.09
2018-01-27T02:40:39.576Z,1020.11
2018-01-27T02:41:39.566Z,1020.11
2018-01-27T02:42:39.554Z,1020.12
2018-01-27T02:43:39.552Z,1020.12
2018-01-27T02:44:39.535Z,1020.10
2018-01-27T02:45:39.521Z,1020.14
2018-01-27T02:46:39.513Z,1020.13
2018-01-27T02:47:39.501Z,1020.13
2018-01-27T02:48:39.494Z,1020.15
2018-01-27T02:49:39.481Z,1020.16
2018-01-27T02:50:39.472Z,1020.19
2018-01-27T02:51:39.462Z,1020.12
2018-01-27T02:52:39.453Z,1020.16
2018-01-27T02:53:39.442Z,1020.12
2018-01-27T02:54:39.433Z,1020.15
2018-01-27T02:55:39.420Z,1020.13
2018-01-27T02:56:39.415Z,1020.13
2018-01-27T02:57:39.400Z,1020.15
2018-01-27T02:58:39.391Z,1020.13
2018-01-27T02:59:39.380Z,1020.15
2018-01-27T03:00:39.370Z,1020.12
2018-01-27T03:01:39.358Z,1020.14
2018-01-27T03:02:39.348Z,1020.16
2018-01-27T03:03:39.339Z,1020.11
2018-01-27T03:04:39.326Z,1020.15
2018-01-27T03:05:39.318Z,1020.14
2018-01-27T03:06:39.309Z,1020.12
2018-01-27T03:07:39.297Z,1020.14
2018-01-27T03:08:39.291Z,1020.13
2018-01-27T03:09:39.305Z,1020.15
2018-01-27T03:10:39.266Z,1020.14
2018-01-27T03:11:39.253Z,1020.14
2018-01-27T03:12:39.249Z,1020.16
2018-01-27T03:13:39.235Z,1020.19
2018-01-27T03:14:39.226Z,1020.19
2018-01-27T03:15:39.222Z,1020.18
2018-01-27T03:16:39.206Z,1020.21
2018-01-27T03:17:39.197Z,1020.23
2018-01-27T03:18:39.184Z,1020.24
2018-01-27T03:19:39.174Z,1020.26
2018-01-27T03:20:39.162Z,1020.29
2018-01-27T03:21:39.158Z,1020.29
2018-01-27T03:22:39.145Z,1020.32
2018-01-27T03:23:39.134Z,1020.30
2018-01-27T03:24:39.125Z,1020.32
2018-01-27T03:25:39.111Z,1020.32
2018-01-27T03:26:39.103Z,1020.33
2018-01-27T03:27:39.095Z,1020.33
2018-01-27T03:28:39.092Z,1020.33
2018-01-27T03:29:39.074Z,1020.33
2018-01-27T03:30:39.063Z,1020.34
2018-01-27T03:31:39.057Z,1020.34
2018-01-27T03:32:39.042Z,1020.37
2018-01-27T03:33:39.037Z,1020.33
2018-01-27T03:34:39.023Z,1020.34
2018-01-27T03:35:39.013Z,1020.35
2018-01-27T03:36:39.002Z,1020.38
2018-01-27T03:37:38.991Z,1020.38
2018-01-27T03:38:38.979Z,1020.39
2018-01-27T03:39:38.969Z,1020.41
2018-01-27T03:40:38.968Z,1020.41
2018-01-27T03:41:38.949Z,1020.39
2018-01-27T03:42:38.938Z,1020.45
2018-01-27T03:43:38.930Z,1020.43
2018-01-27T03:44:38.922Z,1020.43
2018-01-27T03:45:38.906Z,1020.47
2018-01-27T03:46:38.896Z,1020.48
2018-01-27T03:47:38.891Z,1020.47
2018-01-27T03:48:38.879Z,1020.45
2018-01-27T03:49:38.865Z,1020.50
2018-01-27T03:50:38.864Z,1020.43
2018-01-27T03:51:38.848Z,1020.45
2018-01-27T03:52:38.851Z,1020.50
2018-01-27T03:53:38.826Z,1020.49
2018-01-27T03:54:38.814Z,1020.50
2018-01-27T03:55:38.805Z,1020.51
2018-01-27T03:56:38.798Z,1020.50
2018-01-27T03:57:38.792Z,1020.53
2018-01-27T03:58:38.773Z,1020.55
2018-01-27T03:59:38.764Z,1020.56
2018-01-27T04:00:38.758Z,1020.62
2018-01-27T04:01:38.743Z,1020.63
2018-01-27T04:02:38.734Z,1020.64
2018-01-27T04:03:38.728Z,1020.68
2018-01-27T04:04:38.714Z,1020.68
2018-01-27T04:05:38.704Z,1020.71
2018-01-27T04:06:38.690Z,1020.73
2018-01-27T04:07:38.680Z,1020.76
2018-01-27T04:08:38.678Z,1020.79
2018-01-27T04:09:38.664Z,1020.79
2018-01-27T04:10:38.650Z,1020.82
2018-01-27T04:11:38.640Z,1020.82
2018-01-27T04:12:38.627Z,1020.82
2018-01-27T04:13:38.615Z,1020.81
2018-01-27T04:14:38.610Z,1020.82
2018-01-27T04:15:38.602Z,1020.81
2018-01-27T04:16:38.587Z,1020.81
2018-01-27T04:17:38.579Z,1020.81
2018-01-27T04:18:38.562Z,1020.83
2018-01-27T04:19:38.555Z,1020.84
2018-01-27T04:20:38.555Z,1020.86
2018-01-27T04:21:38.536Z,1020.87
2018-01-27T04:22:38.526Z,1020.93
2018-01-27T04:23:38.514Z,1020.89
2018-01-27T04:24:38.506Z,1020.88
2018-01-27T04:25:38.495Z,1020.89
2018-01-27T04:26:38.478Z,1020.93
2018-01-27T04:27:38.487Z,1020.94
2018-01-27T04:28:38.464Z,1020.93
2018-01-27T04:29:38.455Z,1020.93
2018-01-27T04:30:38.439Z,1020.94
2018-01-27T04:31:38.431Z,1020.99
2018-01-27T04:32:38.421Z,1021.06
2018-01-27T04:33:38.410Z,1021.08
2018-01-27T04:34:38.399Z,1021.16
2018-01-27T04:35:38.391Z,1021.16
2018-01-27T04:36:38.379Z,1021.20
2018-01-27T04:37:38.370Z,1021.17
2018-01-27T04:40:11.048Z,1021.19
2018-01-27T04:41:10.979Z,1021.18
2018-01-27T04:43:04.567Z,1021.22
2018-01-27T04:44:04.530Z,1021.22
2018-01-27T04:45:58.699Z,1021.20
2018-01-27T04:46:58.682Z,1021.16
2018-01-27T04:48:52.329Z,1021.24
2018-01-27T04:49:52.293Z,1021.24
2018-01-27T04:51:46.770Z,1021.29
2018-01-27T04:52:46.543Z,1021.31
2018-01-27T04:53:46.531Z,1021.34
2018-01-27T04:54:46.523Z,1021.34
2018-01-27T04:55:46.510Z,1021.36
2018-01-27T04:56:46.502Z,1021.33
2018-01-27T04:57:46.490Z,1021.39
2018-01-27T04:58:46.481Z,1021.38
2018-01-27T04:59:46.466Z,1021.42
2018-01-27T05:00:46.459Z,1021.42
2018-01-27T05:01:46.448Z,1021.44
2018-01-27T05:02:46.459Z,1021.45
2018-01-27T05:03:46.428Z,1021.45
2018-01-27T05:04:46.421Z,1021.41
2018-01-27T05:05:46.410Z,1021.43
2018-01-27T05:06:46.400Z,1021.48
2018-01-27T05:07:46.386Z,1021.51
2018-01-27T05:08:46.373Z,1021.51
2018-01-27T05:09:46.365Z,1021.51
2018-01-27T05:10:46.354Z,1021.56
2018-01-27T05:11:46.344Z,1021.55
2018-01-27T05:12:46.332Z,1021.55
2018-01-27T05:13:46.324Z,1021.56
2018-01-27T05:14:46.312Z,1021.61
2018-01-27T05:15:46.298Z,1021.62
2018-01-27T05:16:46.299Z,1021.60
2018-01-27T05:17:46.282Z,1021.61
2018-01-27T05:18:46.269Z,1021.64
2018-01-27T05:19:46.260Z,1021.66
2018-01-27T05:20:46.250Z,1021.64
2018-01-27T05:21:46.238Z,1021.72
2018-01-27T05:22:46.229Z,1021.74
2018-01-27T05:23:46.222Z,1021.82
2018-01-27T05:24:46.208Z,1021.83
2018-01-27T05:25:46.201Z,1021.88
2018-01-27T05:26:46.195Z,1021.88
2018-01-27T05:27:46.179Z,1021.93
2018-01-27T05:28:46.168Z,1021.95
2018-01-27T05:29:46.196Z,1021.95
2018-01-27T05:30:46.147Z,1021.96
2018-01-27T05:31:46.137Z,1021.98
2018-01-27T05:32:46.130Z,1021.98
2018-01-27T05:33:46.120Z,1021.97
2018-01-27T05:34:46.111Z,1022.01
2018-01-27T05:35:46.110Z,1021.96
2018-01-27T05:36:46.085Z,1021.96
2018-01-27T05:37:46.071Z,1021.95
2018-01-27T05:38:46.061Z,1021.93
2018-01-27T05:39:46.058Z,1021.94
2018-01-27T05:40:46.049Z,1021.92
2018-01-27T05:41:46.034Z,1021.95
2018-01-27T05:42:46.025Z,1021.96
2018-01-27T05:43:46.028Z,1022.00
2018-01-27T05:44:46.008Z,1022.00
2018-01-27T05:45:45.990Z,1021.95
2018-01-27T05:46:46.008Z,1021.98
2018-01-27T05:47:45.981Z,1021.99
2018-01-27T05:48:45.960Z,1022.00
2018-01-27T05:49:45.953Z,1022.04
2018-01-27T05:50:45.942Z,1022.05
2018-01-27T05:51:45.930Z,1022.08
2018-01-27T05:52:45.920Z,1022.14
2018-01-27T05:53:45.909Z,1022.10
2018-01-27T05:54:45.901Z,1022.10
2018-01-27T05:55:45.891Z,1022.12
2018-01-27T05:56:45.878Z,1022.15
2018-01-27T05:57:45.871Z,1022.09
2018-01-27T05:58:45.861Z,1022.05
2018-01-27T05:59:45.854Z,1022.05
2018-01-27T06:00:45.837Z,1022.02
2018-01-27T06:01:45.832Z,1022.00
2018-01-27T06:02:45.815Z,1022.04
2018-01-27T06:03:45.813Z,1022.05
2018-01-27T06:04:45.794Z,1022.10
2018-01-27T06:05:45.787Z,1022.09
2018-01-27T06:06:45.780Z,1022.10
2018-01-27T06:07:45.769Z,1022.12
2018-01-27T06:08:45.756Z,1022.10
2018-01-27T06:09:45.746Z,1022.13
2018-01-27T06:10:45.736Z,1022.11
2018-01-27T06:11:45.723Z,1022.14
2018-01-27T06:12:45.714Z,1022.13
2018-01-27T06:13:45.707Z,1022.16
2018-01-27T06:14:45.695Z,1022.14
2018-01-27T06:15:45.685Z,1022.15
2018-01-27T06:16:45.681Z,1022.13
2018-01-27T06:17:45.666Z,1022.09
2018-01-27T06:18:45.666Z,1022.13
2018-01-27T06:19:45.642Z,1022.15
2018-01-27T06:20:45.628Z,1022.13
2018-01-27T06:21:45.624Z,1022.11
2018-01-27T06:22:45.609Z,1022.13
2018-01-27T06:23:45.600Z,1022.11
2018-01-27T06:24:45.591Z,1022.14
2018-01-27T06:25:45.583Z,1022.15
2018-01-27T06:26:45.566Z,1022.16
2018-01-27T06:27:45.560Z,1022.18
2018-01-27T06:28:45.563Z,1022.12
2018-01-27T06:29:45.540Z,1022.21
2018-01-27T06:30:45.544Z,1022.20
2018-01-27T06:31:45.524Z,1022.23
2018-01-27T06:32:45.512Z,1022.28
2018-01-27T06:33:45.493Z,1022.28
2018-01-27T06:34:45.487Z,1022.31
2018-01-27T06:35:45.495Z,1022.29
2018-01-27T06:36:45.470Z,1022.34
2018-01-27T06:37:45.464Z,1022.32
2018-01-27T06:38:45.450Z,1022.31
2018-01-27T06:39:45.441Z,1022.29
2018-01-27T06:40:45.425Z,1022.32
2018-01-27T06:41:45.415Z,1022.38
2018-01-27T06:42:45.408Z,1022.44
2018-01-27T06:43:45.403Z,1022.45
2018-01-27T06:44:45.386Z,1022.53
2018-01-27T06:45:45.373Z,1022.53
2018-01-27T06:46:45.365Z,1022.56
2018-01-27T06:47:45.354Z,1022.53
2018-01-27T06:48:45.345Z,1022.52
2018-01-27T06:49:45.332Z,1022.57
2018-01-27T06:50:45.326Z,1022.55
2018-01-27T06:51:45.313Z,1022.57
2018-01-27T06:52:45.307Z,1022.56
2018-01-27T06:53:45.301Z,1022.59
2018-01-27T06:54:45.292Z,1022.55
2018-01-27T06:55:45.272Z,1022.57
2018-01-27T06:56:45.262Z,1022.52
2018-01-27T06:57:45.250Z,1022.54
2018-01-27T06:58:45.244Z,1022.54
2018-01-27T06:59:45.226Z,1022.56
2018-01-27T07:00:45.223Z,1022.52
2018-01-27T07:01:45.212Z,1022.57
2018-01-27T07:02:45.203Z,1022.59
2018-01-27T07:03:45.192Z,1022.59
2018-01-27T07:04:45.183Z,1022.69
2018-01-27T07:05:45.171Z,1022.67
2018-01-27T07:06:45.162Z,1022.70
2018-01-27T07:07:45.151Z,1022.72
2018-01-27T07:08:45.143Z,1022.70
2018-01-27T07:09:45.132Z,1022.72
2018-01-27T07:10:45.117Z,1022.76
2018-01-27T07:11:45.112Z,1022.76
2018-01-27T07:12:45.107Z,1022.76
2018-01-27T07:13:45.091Z,1022.75
2018-01-27T07:14:45.081Z,1022.76
2018-01-27T07:15:45.066Z,1022.79
2018-01-27T07:16:45.056Z,1022.79
2018-01-27T07:17:45.053Z,1022.79
2018-01-27T07:18:45.045Z,1022.78
2018-01-27T07:19:45.027Z,1022.81
2018-01-27T07:20:45.020Z,1022.79
2018-01-27T07:21:45.011Z,1022.77
2018-01-27T07:22:44.996Z,1022.73
2018-01-27T07:23:44.988Z,1022.79
2018-01-27T07:24:44.979Z,1022.82
2018-01-27T07:25:44.967Z,1022.81
2018-01-27T07:26:44.955Z,1022.81
2018-01-27T07:27:44.947Z,1022.85
2018-01-27T07:28:44.931Z,1022.83
2018-01-27T07:29:44.926Z,1022.83
2018-01-27T07:30:44.917Z,1022.88
2018-01-27T07:31:44.906Z,1022.91
2018-01-27T07:32:44.894Z,1022.92
2018-01-27T07:33:44.886Z,1022.96
2018-01-27T07:34:44.870Z,1022.98
2018-01-27T07:35:44.864Z,1022.99
2018-01-27T07:36:44.855Z,1022.96
2018-01-27T07:37:44.846Z,1022.95
2018-01-27T07:38:44.832Z,1022.89
2018-01-27T07:39:44.827Z,1022.89
2018-01-27T07:40:44.814Z,1022.92
2018-01-27T07:41:44.805Z,1022.97
2018-01-27T07:42:44.797Z,1022.99
2018-01-27T07:43:44.782Z,1023.03
2018-01-27T07:44:44.773Z,1022.98
2018-01-27T07:45:44.768Z,1022.95
2018-01-27T07:46:44.804Z,1022.97
2018-01-27T07:47:44.741Z,1023.01
2018-01-27T07:48:44.735Z,1023.02
2018-01-27T07:49:44.724Z,1023.04
2018-01-27T07:50:44.712Z,1023.08
2018-01-27T07:51:44.696Z,1023.09
2018-01-27T07:52:44.692Z,1023.09
2018-01-27T07:53:44.689Z,1023.08
2018-01-27T07:54:44.670Z,1023.10
2018-01-27T07:55:44.661Z,1023.10
2018-01-27T07:56:44.660Z,1023.06
2018-01-27T07:57:44.641Z,1023.05
2018-01-27T07:58:44.632Z,1023.06
2018-01-27T07:59:44.621Z,1023.14
2018-01-27T08:00:44.612Z,1023.16
2018-01-27T08:01:44.602Z,1023.17
2018-01-27T08:02:44.592Z,1023.12
2018-01-27T08:03:45.374Z,1023.17
2018-01-27T08:04:44.569Z,1023.18
2018-01-27T08:05:44.560Z,1023.23
2018-01-27T08:06:44.544Z,1023.29
2018-01-27T08:07:44.539Z,1023.27
2018-01-27T08:08:44.540Z,1023.24
2018-01-27T08:09:44.583Z,1023.26
2018-01-27T08:10:44.509Z,1023.25
2018-01-27T08:11:44.498Z,1023.28
2018-01-27T08:12:44.488Z,1023.26
2018-01-27T08:13:44.476Z,1023.26
2018-01-27T08:14:44.495Z,1023.28
2018-01-27T08:15:44.462Z,1023.28
2018-01-27T08:16:44.471Z,1023.25
2018-01-27T08:17:44.461Z,1023.26
2018-01-27T08:18:44.460Z,1023.26
2018-01-27T08:19:44.414Z,1023.27
2018-01-27T08:20:44.404Z,1023.25
2018-01-27T08:21:44.408Z,1023.25
2018-01-27T08:22:44.389Z,1023.27
2018-01-27T08:23:44.377Z,1023.28
2018-01-27T08:24:44.365Z,1023.30
2018-01-27T08:25:44.355Z,1023.26
2018-01-27T08:26:44.404Z,1023.31
2018-01-27T08:27:44.343Z,1023.28
2018-01-27T08:28:44.326Z,1023.24
2018-01-27T08:29:44.314Z,1023.25
2018-01-27T08:30:44.303Z,1023.28
2018-01-27T08:31:44.292Z,1023.27
2018-01-27T08:32:44.283Z,1023.30
2018-01-27T08:33:44.274Z,1023.36
2018-01-27T08:34:44.263Z,1023.37
2018-01-27T08:35:44.252Z,1023.40
2018-01-27T08:36:44.241Z,1023.41
2018-01-27T08:37:44.232Z,1023.36
2018-01-27T08:38:44.218Z,1023.37
2018-01-27T08:39:44.212Z,1023.40
2018-01-27T08:40:44.199Z,1023.43
2018-01-27T08:41:44.191Z,1023.46
2018-01-27T08:42:44.185Z,1023.45
2018-01-27T08:43:44.171Z,1023.37
2018-01-27T08:44:44.160Z,1023.31
2018-01-27T08:45:44.151Z,1023.30
2018-01-27T08:46:44.139Z,1023.31
2018-01-27T08:47:44.128Z,1023.27
2018-01-27T08:48:44.121Z,1023.25
2018-01-27T08:49:44.141Z,1023.28
2018-01-27T08:50:44.101Z,1023.28
2018-01-27T08:51:44.093Z,1023.30
2018-01-27T08:52:44.080Z,1023.31
2018-01-27T08:53:44.070Z,1023.25
2018-01-27T08:54:44.056Z,1023.24
2018-01-27T08:55:44.050Z,1023.22
2018-01-27T08:56:44.037Z,1023.25
2018-01-27T08:57:44.030Z,1023.23
2018-01-27T08:58:44.019Z,1023.22
2018-01-27T08:59:44.011Z,1023.29
2018-01-27T09:00:43.998Z,1023.30
2018-01-27T09:01:43.987Z,1023.37
2018-01-27T09:02:43.977Z,1023.39
2018-01-27T09:03:43.969Z,1023.40
2018-01-27T09:04:43.958Z,1023.44
2018-01-27T09:05:43.945Z,1023.43
2018-01-27T09:06:43.938Z,1023.49
2018-01-27T09:07:43.927Z,1023.47
2018-01-27T09:08:43.917Z,1023.51
2018-01-27T09:09:43.905Z,1023.56
2018-01-27T09:10:43.898Z,1023.57
2018-01-27T09:11:43.888Z,1023.55
2018-01-27T09:12:43.879Z,1023.59
2018-01-27T09:13:43.869Z,1023.60
2018-01-27T09:14:43.863Z,1023.59
2018-01-27T09:15:43.847Z,1023.55
2018-01-27T09:16:43.840Z,1023.63
2018-01-27T09:17:43.830Z,1023.67
2018-01-27T09:18:43.822Z,1023.70
2018-01-27T09:19:43.821Z,1023.66
2018-01-27T09:20:43.803Z,1023.70
2018-01-27T09:21:43.794Z,1023.71
2018-01-27T09:22:43.784Z,1023.72
2018-01-27T09:23:43.777Z,1023.65
2018-01-27T09:24:43.763Z,1023.64
2018-01-27T09:25:43.757Z,1023.57
2018-01-27T09:26:43.750Z,1023.53
2018-01-27T09:27:43.739Z,1023.51
2018-01-27T09:28:43.728Z,1023.48
2018-01-27T09:29:43.720Z,1023.51
2018-01-27T09:30:43.712Z,1023.47
2018-01-27T09:31:43.701Z,1023.43
2018-01-27T09:32:43.691Z,1023.42
2018-01-27T09:33:43.685Z,1023.32
2018-01-27T09:34:43.674Z,1023.33
2018-01-27T09:35:43.667Z,1023.34
2018-01-27T09:36:43.651Z,1023.32
2018-01-27T09:37:43.646Z,1023.31
2018-01-27T09:38:43.638Z,1023.33
2018-01-27T09:39:43.629Z,1023.32
2018-01-27T09:40:43.624Z,1023.39
2018-01-27T09:41:43.644Z,1023.42
2018-01-27T09:42:43.604Z,1023.42
2018-01-27T09:43:43.593Z,1023.41
2018-01-27T09:44:43.587Z,1023.45
2018-01-27T09:45:43.585Z,1023.45
2018-01-27T09:46:43.574Z,1023.49
2018-01-27T09:47:43.591Z,1023.48
2018-01-27T09:48:43.558Z,1023.50
2018-01-27T09:49:43.551Z,1023.47
2018-01-27T09:50:43.541Z,1023.53
2018-01-27T09:51:43.535Z,1023.51
2018-01-27T09:52:43.532Z,1023.53
2018-01-27T09:53:43.536Z,1023.51
2018-01-27T09:54:43.524Z,1023.54
2018-01-27T09:55:43.515Z,1023.55
2018-01-27T09:56:43.512Z,1023.55
2018-01-27T09:57:43.509Z,1023.54
2018-01-27T09:58:43.498Z,1023.47
2018-01-27T09:59:43.487Z,1023.52
2018-01-27T10:00:43.487Z,1023.47
2018-01-27T10:01:43.485Z,1023.53
2018-01-27T10:02:43.482Z,1023.60
2018-01-27T10:03:43.476Z,1023.61
2018-01-27T10:04:43.476Z,1023.68
2018-01-27T10:05:43.470Z,1023.63
2018-01-27T10:06:43.466Z,1023.64
2018-01-27T10:07:43.460Z,1023.61
2018-01-27T10:08:43.450Z,1023.56
2018-01-27T10:09:43.450Z,1023.58
2018-01-27T10:10:43.448Z,1023.55
2018-01-27T10:11:43.446Z,1023.50
2018-01-27T10:12:43.442Z,1023.48
2018-01-27T10:13:43.437Z,1023.47
2018-01-27T10:14:43.436Z,1023.46
2018-01-27T10:15:43.431Z,1023.48
2018-01-27T10:16:43.429Z,1023.41
2018-01-27T10:17:43.452Z,1023.47
2018-01-27T10:18:43.423Z,1023.47
2018-01-27T10:19:43.415Z,1023.47
2018-01-27T10:20:43.413Z,1023.49
2018-01-27T10:21:43.411Z,1023.49
2018-01-27T10:22:43.425Z,1023.49
2018-01-27T10:23:43.410Z,1023.47
2018-01-27T10:24:43.403Z,1023.52
2018-01-27T10:25:43.478Z,1023.49
2018-01-27T10:26:43.396Z,1023.54
2018-01-27T10:27:43.404Z,1023.54
2018-01-27T10:28:43.387Z,1023.56
2018-01-27T10:29:43.381Z,1023.52
2018-01-27T10:30:43.377Z,1023.53
2018-01-27T10:31:43.379Z,1023.50
2018-01-27T10:32:43.396Z,1023.41
2018-01-27T10:33:43.382Z,1023.42
2018-01-27T10:34:43.362Z,1023.45
2018-01-27T10:35:43.354Z,1023.44
2018-01-27T10:36:43.348Z,1023.46
2018-01-27T10:37:43.342Z,1023.43
2018-01-27T10:38:43.337Z,1023.50
2018-01-27T10:39:43.330Z,1023.52
2018-01-27T10:40:43.329Z,1023.52
2018-01-27T10:41:43.322Z,1023.58
2018-01-27T10:42:43.313Z,1023.64
2018-01-27T10:43:43.307Z,1023.66
2018-01-27T10:44:43.295Z,1023.70
2018-01-27T10:45:43.301Z,1023.68
2018-01-27T10:46:43.312Z,1023.64
2018-01-27T10:47:43.280Z,1023.63
2018-01-27T10:48:43.270Z,1023.56
2018-01-27T10:49:43.266Z,1023.58
2018-01-27T10:50:43.256Z,1023.50
2018-01-27T10:51:43.255Z,1023.54
2018-01-27T10:52:43.244Z,1023.54
2018-01-27T10:53:43.237Z,1023.55
2018-01-27T10:54:43.231Z,1023.56
2018-01-27T10:55:43.231Z,1023.58
2018-01-27T10:56:43.217Z,1023.60
2018-01-27T10:57:43.210Z,1023.57
2018-01-27T10:58:43.209Z,1023.66
2018-01-27T10:59:43.201Z,1023.64
2018-01-27T11:00:43.192Z,1023.65
2018-01-27T11:01:43.182Z,1023.67
2018-01-27T11:02:43.180Z,1023.64
2018-01-27T11:03:43.170Z,1023.64
2018-01-27T11:04:43.171Z,1023.65
2018-01-27T11:05:43.154Z,1023.69
2018-01-27T11:06:43.149Z,1023.62
2018-01-27T11:07:43.142Z,1023.59
2018-01-27T11:08:43.131Z,1023.57
2018-01-27T11:09:43.124Z,1023.61
2018-01-27T11:10:43.118Z,1023.55
2018-01-27T11:11:43.106Z,1023.66
2018-01-27T11:12:43.101Z,1023.65
2018-01-27T11:13:43.124Z,1023.65
2018-01-27T11:14:43.083Z,1023.61
2018-01-27T11:15:43.082Z,1023.63
2018-01-27T11:16:43.077Z,1023.64
2018-01-27T11:17:43.060Z,1023.59
2018-01-27T11:18:43.060Z,1023.61
2018-01-27T11:19:45.846Z,1023.59
2018-01-27T11:20:44.802Z,1023.56
2018-01-27T11:21:43.022Z,1023.66
2018-01-27T11:22:43.055Z,1023.58
2018-01-27T11:23:43.010Z,1023.62
2018-01-27T11:24:43.000Z,1023.61
2018-01-27T11:25:43.015Z,1023.69
2018-01-27T11:26:42.983Z,1023.71
2018-01-27T11:27:42.977Z,1023.63
2018-01-27T11:28:42.964Z,1023.70
2018-01-27T11:29:42.954Z,1023.68
2018-01-27T11:30:42.951Z,1023.64
2018-01-27T11:31:42.933Z,1023.66
2018-01-27T11:32:42.985Z,1023.65
2018-01-27T11:33:42.923Z,1023.66
2018-01-27T11:34:42.911Z,1023.61
2018-01-27T11:35:42.899Z,1023.58
2018-01-27T11:36:42.926Z,1023.58
2018-01-27T11:37:42.902Z,1023.58
2018-01-27T11:38:42.888Z,1023.55
2018-01-27T11:39:42.870Z,1023.53
2018-01-27T11:40:42.874Z,1023.59
2018-01-27T11:41:42.847Z,1023.51
2018-01-27T11:42:42.838Z,1023.56
2018-01-27T11:43:42.854Z,1023.55
2018-01-27T11:44:42.832Z,1023.56
2018-01-27T11:45:42.834Z,1023.54
2018-01-27T11:46:42.805Z,1023.56
2018-01-27T11:47:42.798Z,1023.59
2018-01-27T11:48:42.783Z,1023.57
2018-01-27T11:49:42.774Z,1023.59
2018-01-27T11:50:42.784Z,1023.51
2018-01-27T11:51:42.758Z,1023.54
2018-01-27T11:52:42.762Z,1023.50
2018-01-27T11:53:42.742Z,1023.52
2018-01-27T11:54:42.740Z,1023.44
2018-01-27T11:55:42.719Z,1023.48
2018-01-27T11:56:42.714Z,1023.50
2018-01-27T11:57:42.849Z,1023.51
2018-01-27T11:58:42.694Z,1023.48
2018-01-27T11:59:42.686Z,1023.42
2018-01-27T12:00:42.676Z,1023.38
2018-01-27T12:01:42.664Z,1023.29
2018-01-27T12:02:42.659Z,1023.32
2018-01-27T12:03:42.656Z,1023.31
2018-01-27T12:04:42.688Z,1023.33
2018-01-27T12:05:42.630Z,1023.28
2018-01-27T12:06:42.629Z,1023.23
2018-01-27T12:07:42.610Z,1023.25
2018-01-27T12:08:42.604Z,1023.16
2018-01-27T12:09:42.613Z,1023.15
2018-01-27T12:10:42.596Z,1023.13